Malagon, Spain
Current Conditions -  °F | °C
As of 2:00 PM on Friday 31 Oct 2014 (Local Time) from LEAO Reporting Station
Clear Clear  
Wind Chill: 23°   Ceiling: Unl
Heat Index: 23°   Visibility: 6mi
Dew Point:   Wind: 1mph
Humidity: 41%   Direction: 50°NE
Pressure: 30.21"   Gusts: NA
Location:  39.17°N, 3.85°W
Report Text: LEAO 311300Z 05001KT CAVOK 23/09 Q1023
Loading
Personal Weather Stations






























Interactive Weather Map
Tropical Storm Tracking
New forecast layout! Learn more

10-Day Weather Forecast

Advertisements
Track Severe Weather on mobile